Date,TemperatureHighF,TemperatureAvgF,TemperatureLowF,DewpointHighF,DewpointAvgF,DewpointLowF,HumidityHigh,HumidityAvg,HumidityLow,PressureMaxIn,PressureMinIn,WindSpeedMaxMPH,WindSpeedAvgMPH,GustSpeedMaxMPH,PrecipitationSumIn
2013-10-2,74.0,66.2,57.0,60.0,48.7,41.0,86,57,33,29.39,29.26,0,0,2,0.01
2013-10-3,75.0,67.2,59.0,67.0,60.2,51.0,88,79,70,29.29,29.15,3,0,6,0.01
2013-10-4,72.0,67.9,65.0,67.0,61.8,59.0,87,81,74,29.28,29.19,2,0,7,0.00
2013-10-5,77.0,68.6,62.0,69.0,63.9,59.0,90,85,72,29.26,29.05,2,0,7,0.01
2013-10-6,64.0,53.4,44.0,61.0,43.8,36.0,89,71,46,29.07,28.98,1,0,3,0.01
2013-10-7,65.0,52.5,43.0,45.0,41.8,37.0,84,69,43,29.36,29.05,0,0,3,0.00
2013-10-8,74.0,59.9,44.0,50.0,44.8,39.0,86,61,37,29.47,29.36,0,0,0,0.00
2013-10-9,70.0,59.4,47.0,46.0,43.4,40.0,80,58,33,29.53,29.43,0,0,2,0.00
2013-10-10,73.0,59.5,47.0,52.0,47.1,42.0,87,67,39,29.46,29.34,0,0,0,0.00
2013-10-18,49.0,43.7,38.0,40.0,36.1,34.0,85,75,62,29.24,29.11,1,0,6,0.01
2013-10-19,53.0,43.9,40.0,37.0,32.6,-99.9,79,68,45,29.21,29.06,0,0,3,0.00
2013-10-20,58.0,48.1,36.0,45.0,38.2,31.0,84,69,53,29.15,29.00,0,0,3,0.00
2013-10-21,54.0,43.8,32.0,43.0,30.0,20.0,72,59,44,29.24,29.06,0,0,5,0.00
2013-10-22,42.0,35.0,28.0,32.0,25.9,20.0,80,70,49,29.26,29.18,0,0,1,0.71
2013-10-23,45.0,36.4,29.0,28.0,24.7,22.0,82,64,41,29.29,29.19,0,0,5,0.05
2013-10-24,41.0,36.5,31.0,26.0,22.4,19.0,72,57,42,29.56,29.28,0,0,10,0.00
2013-10-25,50.0,43.8,27.0,28.0,24.3,19.0,73,47,36,29.66,29.31,2,0,7,0.00
2013-10-26,54.0,44.5,36.0,33.0,24.9,-99.9,64,48,36,29.36,29.13,2,0,12,0.00
2013-10-27,53.0,42.2,29.0,30.0,26.4,22.0,78,56,37,29.34,29.24,0,0,1,0.00
2013-10-28,50.0,42.6,36.0,39.0,31.5,-99.9,82,68,59,29.65,29.33,1,0,8,0.00
2013-10-29,55.0,46.4,37.0,40.0,35.9,31.0,83,68,44,29.65,29.42,1,0,5,0.00
2013-10-30,59.0,53.0,48.0,55.0,47.4,39.0,90,81,68,29.42,29.05,2,0,7,0.29